Terminal Aerodrome Forecast
Issued by NWS Wilmington, OH

Current Version | Previous Version | Text Only | Print | Product List | Glossary Off
Versions: 1 2 3 4 5 6 7 8 9 10 11 12 13 14 15 16 17 18 19 20 21 22 23

000
FTUS41 KILN 190200 AAA
TAFILN
TAF AMD
KILN 190221Z 1902/1924 32006KT P6SM OVC035
      TEMPO 1902/1906 OVC022
     FM190900 30004KT P6SM SCT025
     FM191500 28005KT P6SM FEW040
     FM192000 24007KT P6SM FEW040=

USA.gov is the U.S. government's official web portal to all federal, state and local government web resources and services.